X  Cerrar Datos meteorológicos de aviación METAR     LGRX Patras Araxos Agamemnon Airport
Temperatura
25°C Temperatura
15°C Punto de rocío
54% Humedad



Viento
19 KM/H
12 MPH
5 M/S
10 NUDO



50°
NE
Condiciones actuales

Claro Claro
Presión 1010.84 (hPa) - 29.85 (inHg)
Visibilidad 6 (milla) - 9.7 (km)
Aeropuerto
Código de aeropuerto LGRX

localidad: Patras Araxos Agamemnon Airport
Distancia: 108 (km)

Metar:
LGRX 210620Z 05010G20KT CAVOK 25/15 Q1011

Hora: 21-05-2024 09:20 EEST